Time;durP1;ratioP1;P1;durP2;ratioP2;P2;SDS_P1;SDS_P2;PMS_P1;PMS_P2;Temp;Humidity;BMP_temperature;BMP_pressure;BME280_temperature;BME280_humidity;BME280_pressure;Samples;Min_cycle;Max_cycle;Signal;HPM_P1;HPM_P2
2022/03/30 00:01:04;;;;;;;;;;;;;;;-144.19;100.00;77461.16;4984285;28;19926;-83
2022/03/30 00:03:31;;;;;;;;;;;;;;;-144.19;100.00;77465.09;4993045;28;20088;-84
2022/03/30 00:05:57;;;;;;;;;;;;;;;-144.19;100.00;77476.91;4995324;28;19940;-83
2022/03/30 00:08:24;;;;;;;;;;;;;;;-144.19;100.00;77480.84;4977774;28;19925;-83
2022/03/30 00:10:50;;;;;;;;;;;;;;;-144.19;100.00;77476.91;5006290;28;19926;-82
2022/03/30 00:13:17;;;;;;;;;;;;;;;-144.19;100.00;77469.03;4995682;28;19932;-82
2022/03/30 00:15:44;;;;;;;;;;;;;;;-144.19;100.00;77484.78;4997026;28;20439;-83
2022/03/30 00:18:10;;;;;;;;;;;;;;;-144.19;100.00;77496.59;5014631;28;19926;-83
2022/03/30 00:20:36;;;;;;;;;;;;;;;-144.19;100.00;77516.28;4986434;28;20298;-83
2022/03/30 00:23:03;;;;;;;;;;;;;;;-144.19;100.00;77504.47;4993859;28;19925;-83
2022/03/30 00:25:30;;;;;;;;;;;;;;;-144.19;100.00;77502.50;4994213;28;19930;-82
2022/03/30 00:27:56;;;;;;;;;;;;;;;-144.19;100.00;77512.34;4977513;28;19933;-84
2022/03/30 00:30:23;;;;;;;;;;;;;;;-144.19;100.00;77512.34;5001639;28;20299;-82
2022/03/30 00:32:49;;;;;;;;;;;;;;;-144.19;100.00;77508.41;5001172;28;19925;-84
2022/03/30 00:35:16;;;;;;;;;;;;;;;-144.19;100.00;77516.28;5007127;28;20276;-84
2022/03/30 00:37:42;;;;;;;;;;;;;;;-144.19;100.00;77516.28;5016878;28;19925;-81
2022/03/30 00:40:10;;;;;;;;;;;;;;;-144.19;100.00;77508.41;5003224;28;20408;-83
2022/03/30 00:42:37;;;;;;;;;;;;;;;-144.19;100.00;77488.72;4976090;28;20312;-83
2022/03/30 00:45:17;;;;;;;;;;;;;;;-144.19;100.00;77490.69;4977452;28;19932;-83
2022/03/30 00:47:44;;;;;;;;;;;;;;;-144.19;100.00;77480.84;4978961;28;19926;-83
2022/03/30 00:50:12;;;;;;;;;;;;;;;-144.19;100.00;77472.97;4983113;28;20427;-84
2022/03/30 00:52:38;;;;;;;;;;;;;;;-144.19;100.00;77472.97;4996080;28;19926;-85
2022/03/30 00:55:05;;;;;;;;;;;;;;;-144.19;100.00;77453.28;5013664;28;19937;-83
2022/03/30 00:57:33;;;;;;;;;;;;;;;-144.19;100.00;77449.34;5013708;28;20291;-84
2022/03/30 01:00:00;;;;;;;;;;;;;;;-144.19;100.00;77437.53;5008577;28;19929;-84
2022/03/30 01:02:27;;;;;;;;;;;;;;;-144.19;100.00;77427.69;4993324;28;19980;-84
2022/03/30 01:04:54;;;;;;;;;;;;;;;-144.19;100.00;77413.91;4994455;28;20024;-85
2022/03/30 01:07:20;;;;;;;;;;;;;;;-144.19;100.00;77406.03;4993652;28;19933;-83
2022/03/30 01:09:46;;;;;;;;;;;;;;;-144.19;100.00;77433.59;4995977;28;20358;-84
2022/03/30 01:12:13;;;;;;;;;;;;;;;-144.19;100.00;77411.94;4995189;28;19926;-84
2022/03/30 01:14:52;;;;;;;;;;;;;;;-144.19;100.00;77398.16;4976471;28;19926;-83
2022/03/30 01:17:19;;;;;;;;;;;;;;;-144.19;100.00;77402.09;4993955;28;19926;-84
2022/03/30 01:19:45;;;;;;;;;;;;;;;-144.19;100.00;77413.91;4994273;28;19929;-82
2022/03/30 01:22:11;;;;;;;;;;;;;;;-144.19;100.00;77421.78;4993898;28;19929;-82
2022/03/30 01:24:38;;;;;;;;;;;;;;;-144.19;100.00;77398.16;4994205;28;19925;-82
2022/03/30 01:27:04;;;;;;;;;;;;;;;-144.19;100.00;77398.16;4993218;28;19926;-83
2022/03/30 01:32:25;;;;;;;;;;;;;;;-144.19;100.00;77402.09;4993250;28;19940;-82
2022/03/30 01:34:52;;;;;;;;;;;;;;;-144.19;100.00;77398.16;4982382;28;19933;-83
2022/03/30 01:37:18;;;;;;;;;;;;;;;-144.19;100.00;77382.41;4974600;28;19926;-82
2022/03/30 01:39:44;;;;;;;;;;;;;;;-144.19;100.00;77343.03;4978743;28;19949;-83
2022/03/30 01:42:11;;;;;;;;;;;;;;;-144.19;100.00;77319.41;4976111;28;19945;-82
2022/03/30 01:44:38;;;;;;;;;;;;;;;-144.19;100.00;77299.72;4993947;28;19926;-83
2022/03/30 01:47:04;;;;;;;;;;;;;;;-144.19;100.00;77301.69;4992812;28;20028;-82
2022/03/30 01:49:31;;;;;;;;;;;;;;;-144.19;100.00;77321.38;4993887;28;19934;-83
2022/03/30 01:51:58;;;;;;;;;;;;;;;-144.19;100.00;77333.19;4975025;28;20335;-82
2022/03/30 01:54:25;;;;;;;;;;;;;;;-144.19;100.00;77339.09;4993533;28;19926;-83
2022/03/30 01:56:52;;;;;;;;;;;;;;;-144.19;100.00;77327.28;4993912;28;19925;-83
2022/03/30 01:59:19;;;;;;;;;;;;;;;-144.19;100.00;77319.41;4976282;28;19930;-82
2022/03/30 02:01:46;;;;;;;;;;;;;;;-144.19;100.00;77335.16;4993280;28;20304;-83
2022/03/30 02:04:12;;;;;;;;;;;;;;;-144.19;100.00;77346.97;4975191;28;19941;-83
2022/03/30 02:06:39;;;;;;;;;;;;;;;-144.19;100.00;77325.31;4993613;28;19936;-82
2022/03/30 02:09:06;;;;;;;;;;;;;;;-144.19;100.00;77317.44;4993114;28;19926;-82
2022/03/30 02:11:32;;;;;;;;;;;;;;;-144.19;100.00;77319.41;4993183;28;19925;-83
2022/03/30 02:14:00;;;;;;;;;;;;;;;-144.19;100.00;77343.03;4975344;28;20141;-83
2022/03/30 02:16:26;;;;;;;;;;;;;;;-144.19;100.00;77345.00;4993053;28;20326;-82
2022/03/30 02:18:53;;;;;;;;;;;;;;;-144.19;100.00;77325.31;4992741;28;20400;-83
2022/03/30 02:21:19;;;;;;;;;;;;;;;-144.19;100.00;77315.47;4993433;28;19945;-83
2022/03/30 02:23:46;;;;;;;;;;;;;;;-144.19;100.00;77301.69;4974779;28;19929;-83
2022/03/30 02:26:13;;;;;;;;;;;;;;;-144.19;100.00;77305.63;4992801;28;19930;-83
2022/03/30 02:28:43;;;;;;;;;;;;;;;-144.19;100.00;77307.59;4976017;28;19926;-82
2022/03/30 02:31:11;;;;;;;;;;;;;;;-144.19;100.00;77293.81;4992440;28;20277;-82
2022/03/30 02:33:38;;;;;;;;;;;;;;;-144.19;100.00;77291.84;4991274;28;19929;-82
2022/03/30 02:36:04;;;;;;;;;;;;;;;-144.19;100.00;77276.09;4993251;28;19926;-82
2022/03/30 02:38:31;;;;;;;;;;;;;;;-144.19;100.00;77276.09;4993014;28;20467;-82
2022/03/30 02:40:57;;;;;;;;;;;;;;;-144.19;100.00;77272.16;4991988;28;19933;-83
2022/03/30 02:43:23;;;;;;;;;;;;;;;-144.19;100.00;77240.66;4992522;28;19926;-83
2022/03/30 02:45:50;;;;;;;;;;;;;;;-144.19;100.00;77244.59;4991508;28;19929;-83
2022/03/30 02:48:19;;;;;;;;;;;;;;;-144.19;100.00;77244.59;4992279;28;20388;-83
2022/03/30 02:50:46;;;;;;;;;;;;;;;-144.19;100.00;77250.50;4975128;28;19925;-83
2022/03/30 02:53:13;;;;;;;;;;;;;;;-144.19;100.00;77244.59;4992088;28;19932;-83
2022/03/30 02:55:39;;;;;;;;;;;;;;;-144.19;100.00;77238.69;4975056;28;19926;-82
2022/03/30 02:58:05;;;;;;;;;;;;;;;-144.19;100.00;77238.69;4966447;28;19926;-83
2022/03/30 03:00:32;;;;;;;;;;;;;;;-144.19;100.00;77238.69;4988122;28;20297;-83
2022/03/30 03:03:00;;;;;;;;;;;;;;;-144.19;100.00;77219.00;4991665;28;20045;-82
2022/03/30 03:05:31;;;;;;;;;;;;;;;-144.19;100.00;77213.09;4992556;28;20012;-81
2022/03/30 03:08:01;;;;;;;;;;;;;;;-144.19;100.00;77201.28;4993000;28;19953;-83
2022/03/30 03:10:29;;;;;;;;;;;;;;;-144.19;100.00;77193.41;4992393;28;19926;-82
2022/03/30 03:12:55;;;;;;;;;;;;;;;-144.19;100.00;77181.59;4991599;28;19926;-84
2022/03/30 03:15:22;;;;;;;;;;;;;;;-144.19;100.00;77185.53;4992433;28;19925;-82
2022/03/30 03:17:49;;;;;;;;;;;;;;;-144.19;100.00;77181.59;4992304;28;19926;-82
2022/03/30 03:20:15;;;;;;;;;;;;;;;-144.19;100.00;77181.59;4989887;28;19926;-83
2022/03/30 03:22:42;;;;;;;;;;;;;;;-144.19;100.00;77185.53;4992523;28;19933;-82
2022/03/30 03:25:09;;;;;;;;;;;;;;;-144.19;100.00;77173.72;4992872;28;20392;-83
2022/03/30 03:27:36;;;;;;;;;;;;;;;-144.19;100.00;77177.66;4990852;28;19926;-82
2022/03/30 03:30:02;;;;;;;;;;;;;;;-144.19;100.00;77177.66;4987317;28;20006;-82
2022/03/30 03:32:29;;;;;;;;;;;;;;;-144.19;100.00;77187.50;4971752;28;20093;-82
2022/03/30 03:34:55;;;;;;;;;;;;;;;-144.19;100.00;77185.53;4973982;28;19929;-82
2022/03/30 03:37:22;;;;;;;;;;;;;;;-144.19;100.00;77199.31;4991867;28;20372;-81
2022/03/30 03:39:48;;;;;;;;;;;;;;;-144.19;100.00;77197.34;4994679;28;19933;-82
2022/03/30 03:42:16;;;;;;;;;;;;;;;-144.19;100.00;77209.16;4994691;28;20275;-82
2022/03/30 03:44:42;;;;;;;;;;;;;;;-144.19;100.00;77228.84;4995412;28;19929;-82
2022/03/30 03:47:09;;;;;;;;;;;;;;;-144.19;100.00;77246.56;4995102;28;19926;-82
2022/03/30 03:49:36;;;;;;;;;;;;;;;-144.19;100.00;77248.53;4977298;28;19934;-82
2022/03/30 03:52:03;;;;;;;;;;;;;;;-144.19;100.00;77258.38;4993121;28;20304;-83
2022/03/30 03:54:30;;;;;;;;;;;;;;;-144.19;100.00;77264.28;4994682;28;20110;-82
2022/03/30 03:56:56;;;;;;;;;;;;;;;-144.19;100.00;77266.25;4994574;28;19932;-82
2022/03/30 03:59:22;;;;;;;;;;;;;;;-144.19;100.00;77264.28;4994515;28;19925;-82
2022/03/30 04:01:49;;;;;;;;;;;;;;;-144.19;100.00;77246.56;4994430;28;20308;-81
2022/03/30 04:04:16;;;;;;;;;;;;;;;-144.19;100.00;77252.47;4993947;28;20292;-82
2022/03/30 04:06:42;;;;;;;;;;;;;;;-144.19;100.00;77252.47;4994568;28;20026;-82
2022/03/30 04:09:09;;;;;;;;;;;;;;;-144.19;100.00;77248.53;4994139;28;19933;-82
2022/03/30 04:11:35;;;;;;;;;;;;;;;-144.19;100.00;77256.41;4994194;28;20333;-82
2022/03/30 04:14:02;;;;;;;;;;;;;;;-144.19;100.00;77276.09;4994048;28;19925;-83
2022/03/30 04:16:28;;;;;;;;;;;;;;;-144.19;100.00;77285.94;4994590;28;19932;-82
2022/03/30 04:18:55;;;;;;;;;;;;;;;-144.19;100.00;77291.84;4995005;28;19949;-82
2022/03/30 04:21:21;;;;;;;;;;;;;;;-144.19;100.00;77299.72;4992963;28;19948;-82
2022/03/30 04:23:47;;;;;;;;;;;;;;;-144.19;100.00;77289.88;4994060;28;19936;-82
2022/03/30 04:26:14;;;;;;;;;;;;;;;-144.19;100.00;77291.84;4993230;28;20371;-82
2022/03/30 04:28:40;;;;;;;;;;;;;;;-144.19;100.00;77297.75;4994525;28;19932;-82
2022/03/30 04:31:07;;;;;;;;;;;;;;;-144.19;100.00;77303.66;4994565;28;19972;-83
2022/03/30 04:33:34;;;;;;;;;;;;;;;-144.19;100.00;77289.88;4992329;28;19932;-83
2022/03/30 04:36:01;;;;;;;;;;;;;;;-144.19;100.00;77291.84;4993763;28;20207;-83
2022/03/30 04:38:27;;;;;;;;;;;;;;;-144.19;100.00;77323.34;4994211;28;19933;-82
2022/03/30 04:40:53;;;;;;;;;;;;;;;-144.19;100.00;77323.34;4976620;28;19930;-82
2022/03/30 04:43:19;;;;;;;;;;;;;;;-144.19;100.00;77317.44;4992069;28;19926;-83
2022/03/30 04:45:46;;;;;;;;;;;;;;;-144.19;100.00;77323.34;4992965;28;19945;-82
2022/03/30 04:48:12;;;;;;;;;;;;;;;-144.19;100.00;77323.34;4994015;28;20016;-83
2022/03/30 04:50:39;;;;;;;;;;;;;;;-144.19;100.00;77339.09;4993063;28;19926;-82
2022/03/30 04:53:05;;;;;;;;;;;;;;;-144.19;100.00;77333.19;4993093;28;20307;-82
2022/03/30 04:55:32;;;;;;;;;;;;;;;-144.19;100.00;77323.34;4991981;28;20025;-82
2022/03/30 04:57:58;;;;;;;;;;;;;;;-144.19;100.00;77327.28;4994565;28;19926;-83
2022/03/30 05:00:25;;;;;;;;;;;;;;;-144.19;100.00;77337.13;4993695;28;20320;-83
2022/03/30 05:02:51;;;;;;;;;;;;;;;-144.19;100.00;77329.25;4992584;28;20396;-83
2022/03/30 05:05:17;;;;;;;;;;;;;;;-144.19;100.00;77329.25;4988157;28;19945;-82
2022/03/30 05:07:44;;;;;;;;;;;;;;;-144.19;100.00;77335.16;4991730;28;19933;-83
2022/03/30 05:10:11;;;;;;;;;;;;;;;-144.19;100.00;77343.03;4993719;28;20357;-82
2022/03/30 05:12:37;;;;;;;;;;;;;;;-144.19;100.00;77345.00;4992601;28;19926;-83
2022/03/30 05:15:05;;;;;;;;;;;;;;;-144.19;100.00;77327.28;4993509;28;19929;-82
2022/03/30 05:17:31;;;;;;;;;;;;;;;-144.19;100.00;77327.28;4988686;28;20440;-82
2022/03/30 05:19:58;;;;;;;;;;;;;;;-144.19;100.00;77315.47;4992887;28;19966;-82
2022/03/30 05:22:25;;;;;;;;;;;;;;;-144.19;100.00;77323.34;4992034;28;19973;-82
2022/03/30 05:24:51;;;;;;;;;;;;;;;-144.19;100.00;77350.91;4991988;28;19925;-82
2022/03/30 05:27:18;;;;;;;;;;;;;;;-144.19;100.00;77366.66;4993699;28;19929;-82
2022/03/30 05:29:44;;;;;;;;;;;;;;;-144.19;100.00;77374.53;4993232;28;19926;-82
2022/03/30 05:32:10;;;;;;;;;;;;;;;-144.19;100.00;77366.66;4992639;28;19932;-82
2022/03/30 05:34:40;;;;;;;;;;;;;;;-144.19;100.00;77346.97;4980361;28;19992;-81
2022/03/30 05:37:06;;;;;;;;;;;;;;;-144.19;100.00;77327.28;4957055;28;19933;-82
2022/03/30 05:39:34;;;;;;;;;;;;;;;-144.19;100.00;77315.47;4973601;28;19926;-83
2022/03/30 05:42:00;;;;;;;;;;;;;;;-144.19;100.00;77319.41;4973320;28;19926;-83
2022/03/30 05:44:26;;;;;;;;;;;;;;;-144.19;100.00;77335.16;4991626;28;20404;-83
2022/03/30 05:46:53;;;;;;;;;;;;;;;-144.19;100.00;77337.13;4993372;28;19926;-82
2022/03/30 05:49:19;;;;;;;;;;;;;;;-144.19;100.00;77356.81;4992724;28;19926;-81
2022/03/30 05:51:45;;;;;;;;;;;;;;;-144.19;100.00;77360.75;4992857;28;19930;-80
2022/03/30 05:54:12;;;;;;;;;;;;;;;-144.19;100.00;77354.84;4992745;28;19926;-80
2022/03/30 05:59:23;;;;;;;;;;;;;;;-144.19;100.00;77356.81;4991356;28;19933;-82
2022/03/30 06:01:49;;;;;;;;;;;;;;;-144.19;100.00;77345.00;4974875;28;19926;-83
2022/03/30 06:04:15;;;;;;;;;;;;;;;-144.19;100.00;77327.28;4991959;28;20412;-82
2022/03/30 06:06:42;;;;;;;;;;;;;;;-144.19;100.00;77305.63;4991317;28;19926;-82
2022/03/30 06:09:08;;;;;;;;;;;;;;;-144.19;100.00;77283.97;4993196;28;19929;-82
2022/03/30 06:11:34;;;;;;;;;;;;;;;-144.19;100.00;77264.28;4992325;28;19936;-84
2022/03/30 06:14:01;;;;;;;;;;;;;;;-144.19;100.00;77252.47;4990711;28;19926;-80
2022/03/30 06:16:27;;;;;;;;;;;;;;;-144.19;100.00;77248.53;4992726;28;19927;-84
2022/03/30 06:18:54;;;;;;;;;;;;;;;-144.19;100.00;77224.91;4989560;28;19996;-83
2022/03/30 06:21:20;;;;;;;;;;;;;;;-144.19;100.00;77203.25;4992161;28;19926;-83
2022/03/30 06:23:47;;;;;;;;;;;;;;;-144.19;100.00;77185.53;4991719;28;19926;-83
2022/03/30 06:26:14;;;;;;;;;;;;;;;-144.19;100.00;77177.66;4992936;28;20315;-83
2022/03/30 06:28:40;;;;;;;;;;;;;;;-144.19;100.00;77169.78;4992798;28;19926;-83
2022/03/30 06:31:06;;;;;;;;;;;;;;;-144.19;100.00;77173.72;4992549;28;20388;-83
2022/03/30 06:33:33;;;;;;;;;;;;;;;-144.19;100.00;77185.53;4992002;28;19933;-81
2022/03/30 06:35:59;;;;;;;;;;;;;;;-144.19;100.00;77217.03;4993288;28;20032;-82
2022/03/30 06:38:25;;;;;;;;;;;;;;;-144.19;100.00;77222.94;4993198;28;19933;-83
2022/03/30 06:40:52;;;;;;;;;;;;;;;-144.19;100.00;77189.47;4992247;28;20423;-81
2022/03/30 06:43:18;;;;;;;;;;;;;;;-144.19;100.00;77167.81;4991854;28;19926;-82
2022/03/30 06:45:46;;;;;;;;;;;;;;;-144.19;100.00;77146.16;4992357;28;19932;-82
2022/03/30 06:48:13;;;;;;;;;;;;;;;-144.19;100.00;77146.16;5007956;28;19929;-82
2022/03/30 06:50:39;;;;;;;;;;;;;;;-144.19;100.00;77130.41;4987795;28;19930;-82
2022/03/30 06:53:07;;;;;;;;;;;;;;;-144.19;100.00;77106.78;4992043;28;19926;-82
2022/03/30 06:55:34;;;;;;;;;;;;;;;-144.19;100.00;77094.97;4992103;28;20325;-82
2022/03/30 06:58:00;;;;;;;;;;;;;;;-144.19;100.00;77075.28;4992091;28;19926;-82
2022/03/30 07:00:27;;;;;;;;;;;;;;;-144.19;100.00;77033.94;4991286;28;20276;-82
2022/03/30 07:02:53;;;;;;;;;;;;;;;-144.19;100.00;77043.78;4990401;28;19926;-83
2022/03/30 07:05:19;;;;;;;;;;;;;;;-144.19;100.00;77039.84;4991749;28;20020;-82
2022/03/30 07:10:33;;;;;;;;;;;;;;;-144.19;100.00;77012.28;4979669;28;21276;-82
2022/03/30 07:15:27;;;;;;;;;;;;;;;-144.19;100.00;77008.34;5032077;23;19957;-85
2022/03/30 07:17:55;;;;;;;;;;;;;;;-144.19;100.00;76992.59;5009565;28;20375;-86
2022/03/30 07:20:30;;;;;;;;;;;;;;;-144.19;100.00;76996.53;5009984;28;19925;-85
2022/03/30 07:22:58;;;;;;;;;;;;;;;-144.19;100.00;76976.84;5007879;28;19936;-84
2022/03/30 07:25:24;;;;;;;;;;;;;;;-144.19;100.00;76949.31;5007100;28;19929;-85
2022/03/30 07:27:53;;;;;;;;;;;;;;;-144.19;100.00;76949.31;5010187;28;19981;-85
2022/03/30 07:30:20;;;;;;;;;;;;;;;-144.19;100.00;76937.50;5009953;28;19932;-85
2022/03/30 07:32:48;;;;;;;;;;;;;;;-144.19;100.00;76945.38;5006667;28;19930;-85
2022/03/30 07:35:15;;;;;;;;;;;;;;;-144.19;100.00;76941.44;5007781;28;19925;-85
2022/03/30 07:37:42;;;;;;;;;;;;;;;-144.19;100.00;76933.56;5006148;28;19929;-84
2022/03/30 07:40:09;;;;;;;;;;;;;;;-144.19;100.00;76919.78;5005011;28;19985;-85
2022/03/30 07:42:35;;;;;;;;;;;;;;;-144.19;100.00;76921.75;5005947;28;19969;-85
2022/03/30 07:45:03;;;;;;;;;;;;;;;-144.19;100.00;76913.88;5005677;28;20311;-84
2022/03/30 07:47:31;;;;;;;;;;;;;;;-144.19;100.00;76894.19;5004127;28;19930;-84
2022/03/30 07:49:58;;;;;;;;;;;;;;;-144.19;100.00;76882.38;5005853;28;19988;-84
2022/03/30 07:52:24;;;;;;;;;;;;;;;-144.19;100.00;76874.50;5005542;28;19936;-84
2022/03/30 07:54:52;;;;;;;;;;;;;;;-144.19;100.00;76858.75;5005078;28;19932;-85
2022/03/30 07:57:25;;;;;;;;;;;;;;;-144.19;100.00;76872.53;5007863;28;19932;-85
2022/03/30 07:59:52;;;;;;;;;;;;;;;-144.19;100.00;76870.56;5008453;28;20435;-84
2022/03/30 08:02:19;;;;;;;;;;;;;;;-144.19;100.00;76866.63;5008887;28;19926;-84
2022/03/30 08:04:45;;;;;;;;;;;;;;;-144.19;100.00;76843.00;5008333;28;19932;-84
2022/03/30 08:07:12;;;;;;;;;;;;;;;-144.19;100.00;76803.63;5007813;28;19937;-84
2022/03/30 08:09:42;;;;;;;;;;;;;;;-144.19;100.00;76819.38;5019102;28;19913;-85
2022/03/30 08:12:15;;;;;;;;;;;;;;;-144.19;100.00;76805.59;5002805;28;19913;-85
2022/03/30 08:15:05;;;;;;;;;;;;;;;-144.19;100.00;76819.38;5003151;28;19985;-85
2022/03/30 08:18:08;;;;;;;;;;;;;;;-144.19;100.00;76776.06;5004349;28;19978;-84
2022/03/30 08:24:21;;;;;;;;;;;;;;;-144.19;100.00;76738.66;5018536;28;19920;-85
2022/03/30 08:27:21;;;;;;;;;;;;;;;-144.19;100.00;76736.69;5004992;28;19925;-85
2022/03/30 08:30:23;;;;;;;;;;;;;;;-144.19;100.00;76756.38;5005234;28;19924;-84
2022/03/30 08:33:23;;;;;;;;;;;;;;;-144.19;100.00;76742.59;5002313;28;19985;-85
2022/03/30 08:35:51;;;;;;;;;;;;;;;-144.19;100.00;76744.56;5018197;28;19926;-84
2022/03/30 08:38:23;;;;;;;;;;;;;;;-144.19;100.00;76748.50;5001225;28;19922;-84
2022/03/30 08:40:56;;;;;;;;;;;;;;;-144.19;100.00;76742.59;5017542;28;19949;-85
2022/03/30 08:43:31;;;;;;;;;;;;;;;-144.19;100.00;76717.00;4998384;28;19930;-84
2022/03/30 08:46:14;;;;;;;;;;;;;;;-144.19;100.00;76720.94;5001628;28;19926;-84
2022/03/30 08:49:05;;;;;;;;;;;;;;;-144.19;100.00;76697.31;5000904;28;19930;-84
2022/03/30 08:51:38;;;;;;;;;;;;;;;-144.19;100.00;76665.84;4998101;28;19940;-86
2022/03/30 08:54:12;;;;;;;;;;;;;;;-144.19;100.00;76683.53;4996425;28;19993;-86
2022/03/30 08:56:46;;;;;;;;;;;;;;;-144.19;100.00;76650.09;5013235;28;19926;-84
2022/03/30 08:59:40;;;;;;;;;;;;;;;-144.19;100.00;76659.94;4995086;28;19934;-84
2022/03/30 09:02:35;;;;;;;;;;;;;;;-144.19;100.00;76630.41;4972064;28;19965;-84
2022/03/30 09:05:40;;;;;;;;;;;;;;;-144.19;100.00;76654.03;5019477;28;19932;-84
2022/03/30 09:08:44;;;;;;;;;;;;;;;-144.19;100.00;76610.72;4941014;29;19931;-85
2022/03/30 09:11:30;;;;;;;;;;;;;;;-144.19;100.00;76575.28;4994716;28;20396;-84
2022/03/30 09:14:28;;;;;;;;;;;;;;;-144.19;100.00;76530.00;4986884;28;19924;-84
2022/03/30 09:17:16;;;;;;;;;;;;;;;-144.19;100.00;76547.72;4999291;28;19926;-84
2022/03/30 09:19:55;;;;;;;;;;;;;;;-144.19;100.00;76535.91;5000284;28;19926;-84
2022/03/30 09:22:37;;;;;;;;;;;;;;;;;;;;;
2022/03/30 09:28:55;;;;;;;;;;;;;;;-144.19;100.00;76518.19;5016658;28;19926;-84
2022/03/30 09:31:22;;;;;;;;;;;;;;;-144.19;100.00;76478.84;4998200;28;19926;-83
2022/03/30 09:33:50;;;;;;;;;;;;;;;-144.19;100.00;76484.75;4995692;28;19926;-83
2022/03/30 09:36:29;;;;;;;;;;;;;;;-144.19;100.00;76506.38;5011433;28;19933;-83
2022/03/30 09:39:10;;;;;;;;;;;;;;;-144.19;100.00;76484.75;4996963;28;19928;-84
2022/03/30 09:42:24;;;;;;;;;;;;;;;-144.19;100.00;76530.00;4943459;29;19927;-84
2022/03/30 09:48:17;;;;;;;;;;;;;;;-144.19;100.00;76516.22;5014510;28;19930;-84
2022/03/30 09:51:06;;;;;;;;;;;;;;;-144.19;100.00;76472.94;4987579;28;19926;-83
2022/03/30 09:53:52;;;;;;;;;;;;;;;-144.19;100.00;76480.81;4992215;28;19926;-84
2022/03/30 09:56:33;;;;;;;;;;;;;;;-144.19;100.00;76500.47;4994232;28;19980;-83
2022/03/30 09:59:24;;;;;;;;;;;;;;;-144.19;100.00;76484.75;4995209;28;19921;-83
2022/03/30 10:02:15;;;;;;;;;;;;;;;-144.19;100.00;76421.75;4998360;28;19957;-83
2022/03/30 10:05:21;;;;;;;;;;;;;;;;;;;;;
2022/03/30 10:11:16;;;;;;;;;;;;;;;-144.19;100.00;76384.34;5014738;28;19913;-83
2022/03/30 10:13:50;;;;;;;;;;;;;;;-144.19;100.00;76313.50;4999290;28;19918;-83
2022/03/30 10:16:39;;;;;;;;;;;;;;;-144.19;100.00;76335.16;5001874;28;19926;-83
2022/03/30 10:19:09;;;;;;;;;;;;;;;-144.19;100.00;76299.72;4994238;28;19929;-83
2022/03/30 10:22:14;;;;;;;;;;;;;;;-144.19;100.00;76264.28;4994384;28;19998;-86
2022/03/30 10:25:02;;;;;;;;;;;;;;;-144.19;100.00;76197.38;5013812;28;19926;-85
2022/03/30 10:28:09;;;;;;;;;;;;;;;;;;;;;
2022/03/30 10:30:53;;;;;;;;;;;;;;;-144.19;100.00;76197.38;5014510;28;19930;-84
2022/03/30 10:34:39;;;;;;;;;;;;;;;-144.19;100.00;76154.06;4996623;28;19914;-81
2022/03/30 10:41:17;;;;;;;;;;;;;;;-144.19;100.00;76067.47;4976119;28;19941;-83
2022/03/30 10:47:41;;;;;;;;;;;;;;;-144.19;100.00;76193.44;5002176;28;19953;-83
2022/03/30 10:50:59;;;;;;;;;;;;;;;;;;;;;
2022/03/30 10:58:02;;;;;;;;;;;;;;;-144.19;100.00;76191.47;4930857;29;19951;-84
2022/03/30 11:01:05;;;;;;;;;;;;;;;-144.19;94.91;76177.69;4912352;29;20528;-85
2022/03/30 11:03:54;;;;;;;;;;;;;;;-144.19;98.57;76228.84;4917232;29;19927;-86
2022/03/30 11:06:28;;;;;;;;;;;;;;;-144.19;100.00;76285.94;4976591;28;19925;-85
2022/03/30 11:12:20;;;;;;;;;;;;;;;-144.19;100.00;76136.34;4986023;28;19930;-86
2022/03/30 11:18:20;;;;;;;;;;;;;;;-144.19;100.00;76201.31;4983564;28;20012;-83
2022/03/30 11:21:06;;;;;;;;;;;;;;;-144.19;100.00;76181.63;4990643;28;19926;-84
2022/03/30 11:23:34;;;;;;;;;;;;;;;-144.19;100.00;76122.56;5005588;28;19933;-83
2022/03/30 11:26:01;;;;;;;;;;;;;;;-144.19;100.00;76211.16;4975682;28;19925;-81
2022/03/30 11:28:35;;;;;;;;;;;;;;;-144.19;100.00;76148.16;4992458;28;19933;-84
2022/03/30 11:31:40;;;;;;;;;;;;;;;-144.19;100.00;76169.81;4990252;28;19925;-86
2022/03/30 11:37:35;;;;;;;;;;;;;;;-144.19;100.00;76256.41;4986430;28;19926;-85
2022/03/30 11:40:08;;;;;;;;;;;;;;;-144.19;100.00;76217.03;4986515;28;19926;-84
2022/03/30 11:42:45;;;;;;;;;;;;;;;-144.19;100.00;76224.91;4971602;28;20029;-85
2022/03/30 11:45:31;;;;;;;;;;;;;;;-144.19;100.00;76232.78;4969475;28;19950;-85
2022/03/30 11:48:19;;;;;;;;;;;;;;;-144.19;100.00;76195.41;4915297;28;19926;-85
2022/03/30 11:50:53;;;;;;;;;;;;;;;-144.19;100.00;76189.50;4968673;28;19937;-85
2022/03/30 11:53:29;;;;;;;;;;;;;;;-144.19;100.00;76232.78;4969299;28;19933;-87
2022/03/30 11:56:05;;;;;;;;;;;;;;;-144.19;100.00;76211.16;4968301;28;19954;-88
2022/03/30 11:58:43;;;;;;;;;;;;;;;-144.19;100.00;76191.47;4969062;28;20369;-86
2022/03/30 12:01:16;;;;;;;;;;;;;;;-144.19;100.00;76197.38;4971472;28;19946;-86
2022/03/30 12:03:44;;;;;;;;;;;;;;;-144.19;100.00;76181.63;4971359;28;20037;-85
2022/03/30 12:06:12;;;;;;;;;;;;;;;-144.19;100.00;76276.09;4971975;28;19958;-86
2022/03/30 12:08:48;;;;;;;;;;;;;;;-144.19;100.00;76291.84;4988033;28;19937;-86
2022/03/30 12:12:11;;;;;;;;;;;;;;;-144.19;100.00;76268.22;4987039;28;19926;-86
2022/03/30 12:14:25;;;;;;;;;;;;;;;-144.19;100.00;76240.66;4976787;28;20021;-86
2022/03/30 12:16:53;;;;;;;;;;;;;;;-144.19;100.00;76246.56;4986246;28;19926;-86
2022/03/30 12:19:21;;;;;;;;;;;;;;;-144.19;100.00;76220.97;4970518;28;19926;-86
2022/03/30 12:21:50;;;;;;;;;;;;;;;-144.19;100.00;76201.31;4972193;28;19926;-85
2022/03/30 12:24:22;;;;;;;;;;;;;;;-144.19;100.00;76260.34;4988543;28;19926;-83
2022/03/30 12:26:50;;;;;;;;;;;;;;;-144.19;100.00;76219.00;4970487;28;19957;-85
2022/03/30 12:29:34;;;;;;;;;;;;;;;-144.19;100.00;76252.47;4989225;28;19930;-86
2022/03/30 12:32:05;;;;;;;;;;;;;;;-144.19;100.00;76283.97;4971723;28;19926;-85
2022/03/30 12:34:39;;;;;;;;;;;;;;;-144.19;100.00;76297.75;4988237;28;19926;-86
2022/03/30 12:37:09;;;;;;;;;;;;;;;-144.19;100.00;76291.84;4969910;28;19926;-85
2022/03/30 12:39:46;;;;;;;;;;;;;;;-144.19;100.00;76299.72;4971087;28;20369;-85
2022/03/30 12:42:27;;;;;;;;;;;;;;;-144.19;100.00;76254.44;4969960;28;19985;-86
2022/03/30 12:45:12;;;;;;;;;;;;;;;-144.19;100.00;76248.53;4972457;28;20097;-86
2022/03/30 12:48:02;;;;;;;;;;;;;;;-144.19;100.00;76240.66;4972790;28;20361;-87
2022/03/30 12:50:35;;;;;;;;;;;;;;;-144.19;100.00;76285.94;4971355;28;20349;-85
2022/03/30 12:53:15;;;;;;;;;;;;;;;-144.19;100.00;76307.59;4969844;28;19926;-84
2022/03/30 12:55:53;;;;;;;;;;;;;;;-144.19;100.00;76248.53;4971646;28;19932;-86
2022/03/30 12:58:36;;;;;;;;;;;;;;;-144.19;100.00;76217.03;4973442;28;19926;-85
2022/03/30 13:02:01;;;;;;;;;;;;;;;-144.19;100.00;76272.16;4970932;28;19926;-85
2022/03/30 13:04:56;;;;;;;;;;;;;;;-144.19;100.00;76238.69;4929940;28;19928;-85
2022/03/30 13:07:26;;;;;;;;;;;;;;;-144.19;100.00;76274.13;4980065;28;19925;-85
2022/03/30 13:10:16;;;;;;;;;;;;;;;-144.19;100.00;76232.78;4989586;28;19926;-85
2022/03/30 13:13:00;;;;;;;;;;;;;;;-144.19;100.00;76256.41;4989473;28;19977;-86
2022/03/30 13:15:32;;;;;;;;;;;;;;;-144.19;100.00;76268.22;5045435;23;19933;-81
2022/03/30 13:17:58;;;;;;;;;;;;;;;-144.19;100.00;76266.25;5031750;28;20387;-83
2022/03/30 13:20:25;;;;;;;;;;;;;;;-144.19;100.00;76285.94;5030408;28;20024;-81
2022/03/30 13:22:56;;;;;;;;;;;;;;;-144.19;100.00;76287.91;5032397;28;19957;-81
2022/03/30 13:25:25;;;;;;;;;;;;;;;-144.19;100.00;76299.72;5060291;28;19929;-83
2022/03/30 13:27:52;;;;;;;;;;;;;;;-144.19;100.00;76287.91;5033167;28;19932;-83
2022/03/30 13:30:18;;;;;;;;;;;;;;;-144.19;100.00;76327.28;5033019;28;19929;-83
2022/03/30 13:32:44;;;;;;;;;;;;;;;-144.19;100.00;76309.56;5047263;28;19925;-82
2022/03/30 13:35:11;;;;;;;;;;;;;;;-144.19;100.00;76311.53;5033079;28;19925;-82